Time;durP1;ratioP1;P1;durP2;ratioP2;P2;SDS_P1;SDS_P2;PMS_P1;PMS_P2;Temp;Humidity;BMP_temperature;BMP_pressure;BME280_temperature;BME280_humidity;BME280_pressure;Samples;Min_cycle;Max_cycle;Signal;HPM_P1;HPM_P2
2021/11/11 00:00:58;;;;;;;32.08;25.95;;;4.30;1.00;;;;;;5044739;28;20221;-78
2021/11/11 00:03:25;;;;;;;29.48;25.33;;;4.30;1.00;;;;;;5042983;28;20228;-77
2021/11/11 00:05:53;;;;;;;30.95;25.55;;;4.20;1.00;;;;;;5034433;28;20656;-78
2021/11/11 00:08:20;;;;;;;32.88;26.60;;;4.20;1.00;;;;;;5038073;28;20225;-78
2021/11/11 00:10:47;;;;;;;31.98;25.55;;;4.20;1.00;;;;;;5031508;28;20247;-78
2021/11/11 00:13:19;;;;;;;28.60;25.40;;;4.20;1.00;;;;;;5035960;28;20504;-78
2021/11/11 00:15:45;;;;;;;34.13;27.20;;;4.10;1.00;;;;;;5036784;28;20328;-77
2021/11/11 00:18:12;;;;;;;32.50;26.90;;;4.10;1.00;;;;;;5035671;28;20265;-77
2021/11/11 00:20:39;;;;;;;32.25;27.55;;;4.20;1.00;;;;;;5032995;28;20224;-78
2021/11/11 00:23:06;;;;;;;32.70;24.08;;;4.20;1.00;;;;;;5037545;28;21144;-77
2021/11/11 00:25:32;;;;;;;30.45;25.95;;;4.10;1.00;;;;;;5036114;28;20228;-77
2021/11/11 00:28:00;;;;;;;33.20;25.17;;;4.00;1.00;;;;;;5036237;28;20232;-77
2021/11/11 00:30:30;;;;;;;29.45;23.55;;;4.00;1.00;;;;;;5041745;28;20226;-79
2021/11/11 00:32:57;;;;;;;31.02;26.00;;;3.90;1.00;;;;;;5034802;28;20236;-78
2021/11/11 00:35:26;;;;;;;27.98;23.55;;;3.80;1.00;;;;;;5039065;28;20983;-78
2021/11/11 00:37:53;;;;;;;31.52;25.63;;;3.80;1.00;;;;;;5040897;28;20240;-79
2021/11/11 00:40:21;;;;;;;31.33;23.25;;;3.70;1.00;;;;;;5043994;28;20220;-79
2021/11/11 00:42:48;;;;;;;29.55;24.42;;;3.70;1.00;;;;;;5036791;28;20303;-79
2021/11/11 00:45:15;;;;;;;32.25;23.90;;;3.70;1.00;;;;;;5043578;28;20885;-79
2021/11/11 00:47:44;;;;;;;29.35;22.77;;;3.70;1.00;;;;;;5041848;28;20233;-79
2021/11/11 00:50:13;;;;;;;26.40;23.13;;;3.70;1.00;;;;;;5032726;28;20240;-77
2021/11/11 00:52:40;;;;;;;28.92;24.92;;;3.70;1.00;;;;;;5036887;28;20236;-78
2021/11/11 00:55:07;;;;;;;28.83;23.75;;;3.80;1.00;;;;;;5037465;28;20221;-78
2021/11/11 00:57:34;;;;;;;33.53;26.50;;;3.80;1.00;;;;;;5039475;28;20287;-78
2021/11/11 01:00:02;;;;;;;30.52;24.05;;;3.80;1.00;;;;;;5039493;28;20249;-77
2021/11/11 01:02:28;;;;;;;29.33;23.95;;;3.70;1.00;;;;;;5039748;28;20224;-77
2021/11/11 01:04:56;;;;;;;27.80;22.67;;;3.80;1.00;;;;;;5036106;28;20224;-78
2021/11/11 01:07:23;;;;;;;31.33;26.17;;;3.80;1.00;;;;;;5055025;28;20225;-78
2021/11/11 01:09:49;;;;;;;31.88;25.52;;;3.70;1.00;;;;;;5038722;28;20708;-78
2021/11/11 01:12:16;;;;;;;27.00;24.10;;;3.70;1.00;;;;;;5041361;28;20249;-78
2021/11/11 01:14:43;;;;;;;33.85;24.42;;;3.80;1.00;;;;;;5043574;28;20224;-79
2021/11/11 01:17:09;;;;;;;30.27;25.20;;;3.80;1.00;;;;;;5040267;28;20235;-78
2021/11/11 01:19:36;;;;;;;35.40;25.00;;;3.80;1.00;;;;;;5040605;28;20220;-78
2021/11/11 01:22:05;;;;;;;30.83;24.65;;;3.80;1.00;;;;;;5049340;28;20246;-78
2021/11/11 01:24:32;;;;;;;32.42;24.80;;;3.70;1.00;;;;;;5045434;28;20361;-79
2021/11/11 01:26:59;;;;;;;27.90;23.05;;;3.70;1.00;;;;;;5044269;28;20318;-78
2021/11/11 01:29:26;;;;;;;31.40;24.40;;;3.60;1.00;;;;;;5043907;28;22804;-78
2021/11/11 01:31:53;;;;;;;24.90;22.33;;;3.50;1.00;;;;;;5037900;28;20229;-78
2021/11/11 01:34:19;;;;;;;27.00;22.52;;;3.50;1.00;;;;;;5040684;28;20224;-77
2021/11/11 01:36:46;;;;;;;32.17;24.80;;;3.50;1.00;;;;;;5042883;28;20227;-77
2021/11/11 01:39:14;;;;;;;27.73;23.40;;;3.50;1.00;;;;;;5045077;28;20235;-77
2021/11/11 01:41:44;;;;;;;30.00;23.73;;;3.50;1.00;;;;;;5031333;28;20225;-77
2021/11/11 01:44:12;;;;;;;28.67;23.73;;;3.50;1.00;;;;;;5039166;28;20225;-78
2021/11/11 01:46:39;;;;;;;31.15;25.00;;;3.40;1.00;;;;;;5047145;28;20232;-78
2021/11/11 01:49:05;;;;;;;29.60;24.65;;;3.40;1.00;;;;;;5046370;28;20221;-79
2021/11/11 01:51:32;;;;;;;32.20;24.98;;;3.30;1.00;;;;;;5044523;28;20225;-78
2021/11/11 01:53:59;;;;;;;29.67;23.33;;;3.20;1.00;;;;;;5040115;28;20712;-79
2021/11/11 01:56:27;;;;;;;29.98;24.33;;;3.20;1.00;;;;;;5044356;28;20228;-79
2021/11/11 01:58:54;;;;;;;29.60;23.75;;;3.20;1.00;;;;;;5046119;28;20246;-78
2021/11/11 02:01:21;;;;;;;30.90;22.45;;;3.20;1.00;;;;;;5057204;28;20230;-78
2021/11/11 02:03:48;;;;;;;30.08;23.80;;;3.10;1.00;;;;;;5041844;28;20294;-78
2021/11/11 02:06:15;;;;;;;34.28;23.55;;;3.10;1.00;;;;;;5041800;28;20314;-79
2021/11/11 02:08:41;;;;;;;27.10;23.38;;;3.00;1.00;;;;;;5040777;28;20228;-78
2021/11/11 02:11:08;;;;;;;28.10;21.90;;;3.00;1.00;;;;;;5043958;28;20745;-79
2021/11/11 02:13:36;;;;;;;34.83;24.67;;;3.00;1.00;;;;;;5040227;28;20257;-77
2021/11/11 02:16:03;;;;;;;30.00;24.10;;;3.00;1.00;;;;;;5038742;28;20217;-77
2021/11/11 02:18:30;;;;;;;35.10;25.67;;;3.00;1.00;;;;;;5039886;28;20225;-78
2021/11/11 02:20:59;;;;;;;30.30;23.83;;;3.10;1.00;;;;;;5036804;28;20228;-78
2021/11/11 02:23:27;;;;;;;30.35;23.50;;;3.10;1.00;;;;;;5041674;28;20253;-77
2021/11/11 02:25:54;;;;;;;30.05;25.10;;;3.10;1.00;;;;;;5044183;28;21840;-78
2021/11/11 02:28:22;;;;;;;32.53;23.45;;;3.10;1.00;;;;;;5045837;28;20225;-78
2021/11/11 02:30:51;;;;;;;26.15;21.88;;;3.00;1.00;;;;;;5037924;28;20957;-78
2021/11/11 02:33:20;;;;;;;34.17;24.55;;;3.00;1.00;;;;;;5035109;28;20732;-78
2021/11/11 02:35:47;;;;;;;29.45;23.20;;;3.00;1.00;;;;;;5037764;28;20223;-78
2021/11/11 02:38:17;;;;;;;29.33;24.17;;;3.00;1.00;;;;;;5042196;28;20225;-77
2021/11/11 02:40:44;;;;;;;30.08;24.25;;;3.00;1.00;;;;;;5038267;28;20228;-78
2021/11/11 02:43:14;;;;;;;26.42;21.33;;;3.00;1.00;;;;;;5043702;28;20228;-78
2021/11/11 02:45:43;;;;;;;28.80;22.55;;;3.00;1.00;;;;;;5039116;28;20358;-77
2021/11/11 02:48:12;;;;;;;28.85;22.63;;;3.00;1.00;;;;;;5040946;28;20251;-77
2021/11/11 02:50:40;;;;;;;28.73;22.83;;;3.00;1.00;;;;;;5037069;28;20744;-77
2021/11/11 02:53:08;;;;;;;30.10;24.13;;;3.00;1.00;;;;;;5040289;28;20271;-78
2021/11/11 02:55:36;;;;;;;29.30;23.20;;;3.00;1.00;;;;;;5039117;28;20221;-77
2021/11/11 02:58:04;;;;;;;29.98;23.90;;;2.90;1.00;;;;;;5041613;28;20230;-77
2021/11/11 03:00:34;;;;;;;29.30;23.13;;;2.80;1.00;;;;;;5039841;28;20232;-78
2021/11/11 03:03:00;;;;;;;27.00;22.42;;;2.80;1.00;;;;;;5040327;28;20755;-77
2021/11/11 03:05:29;;;;;;;29.63;23.73;;;2.70;1.00;;;;;;5035951;28;20229;-78
2021/11/11 03:07:56;;;;;;;29.80;23.83;;;2.70;1.00;;;;;;5036536;28;20232;-78
2021/11/11 03:10:25;;;;;;;30.77;22.70;;;2.80;1.00;;;;;;5037381;28;20228;-77
2021/11/11 03:12:55;;;;;;;28.63;23.27;;;2.80;1.00;;;;;;5041173;28;20233;-78
2021/11/11 03:15:24;;;;;;;30.60;24.17;;;2.80;1.00;;;;;;5038493;28;20221;-78
2021/11/11 03:17:51;;;;;;;29.65;22.45;;;2.80;1.00;;;;;;5036493;28;21399;-77
2021/11/11 03:20:18;;;;;;;31.42;22.85;;;2.80;1.00;;;;;;5039933;28;20229;-78
2021/11/11 03:22:46;;;;;;;32.03;24.38;;;2.80;1.00;;;;;;5032282;28;20228;-78
2021/11/11 03:25:15;;;;;;;29.30;25.02;;;2.80;1.00;;;;;;5039042;28;20241;-77
2021/11/11 03:27:42;;;;;;;33.30;25.00;;;2.80;1.00;;;;;;5040818;28;20221;-77
2021/11/11 03:30:13;;;;;;;31.17;24.27;;;2.80;1.00;;;;;;5035439;28;20236;-78
2021/11/11 03:32:40;;;;;;;28.98;23.85;;;2.80;1.00;;;;;;5038785;28;20233;-77
2021/11/11 03:35:08;;;;;;;26.48;22.10;;;2.70;1.00;;;;;;5034588;28;20320;-77
2021/11/11 03:37:35;;;;;;;34.83;23.85;;;2.70;1.00;;;;;;5038359;28;20229;-78
2021/11/11 03:40:03;;;;;;;29.52;22.58;;;2.70;1.00;;;;;;5031571;28;20337;-78
2021/11/11 03:42:31;;;;;;;29.40;25.75;;;2.70;1.00;;;;;;5038566;28;21673;-78
2021/11/11 03:44:58;;;;;;;30.63;23.17;;;2.60;1.00;;;;;;5041309;28;20629;-78
2021/11/11 03:47:26;;;;;;;27.35;21.83;;;2.60;1.00;;;;;;5043628;28;21292;-78
2021/11/11 03:49:52;;;;;;;33.08;23.90;;;2.50;1.00;;;;;;5045770;28;20709;-78
2021/11/11 03:52:19;;;;;;;32.45;23.80;;;2.50;1.00;;;;;;5041851;28;20229;-78
2021/11/11 03:54:46;;;;;;;31.67;23.52;;;2.40;1.00;;;;;;5044747;28;20225;-78
2021/11/11 03:57:12;;;;;;;28.40;22.38;;;2.30;1.00;;;;;;5040356;28;20228;-77
2021/11/11 03:59:39;;;;;;;30.67;22.38;;;2.40;1.00;;;;;;5044799;28;20244;-77
2021/11/11 04:02:07;;;;;;;30.58;24.15;;;2.50;1.00;;;;;;5047444;28;20221;-79
2021/11/11 04:04:36;;;;;;;32.03;23.90;;;2.50;1.00;;;;;;5048115;28;20232;-79
2021/11/11 04:07:03;;;;;;;30.40;22.55;;;2.50;1.00;;;;;;5062162;28;20248;-79
2021/11/11 04:09:30;;;;;;;32.83;23.95;;;2.50;1.00;;;;;;5047837;28;21017;-77
2021/11/11 04:11:56;;;;;;;32.38;24.33;;;2.40;1.00;;;;;;5040432;28;20225;-78
2021/11/11 04:14:23;;;;;;;31.67;22.63;;;2.30;1.00;;;;;;5038788;28;20233;-78
2021/11/11 04:16:50;;;;;;;27.40;22.92;;;2.20;1.00;;;;;;5047753;28;20320;-78
2021/11/11 04:19:16;;;;;;;29.77;24.27;;;2.00;1.00;;;;;;5043428;28;21313;-78
2021/11/11 04:21:44;;;;;;;28.20;22.95;;;2.00;1.00;;;;;;5041115;28;20225;-78
2021/11/11 04:24:12;;;;;;;30.05;24.27;;;2.00;1.00;;;;;;5042304;28;20707;-78
2021/11/11 04:26:47;;;;;;;30.15;23.98;;;2.00;1.00;;;;;;5047840;28;20235;-78
2021/11/11 04:29:18;;;;;;;32.40;22.58;;;2.10;1.00;;;;;;5037815;28;20769;-78
2021/11/11 04:31:49;;;;;;;34.20;24.40;;;2.10;1.00;;;;;;5039995;28;20252;-79
2021/11/11 04:34:16;;;;;;;33.47;25.15;;;2.20;1.00;;;;;;5043529;28;20224;-77
2021/11/11 04:39:58;;;;;;;29.77;24.13;;;2.20;1.00;;;;;;5034237;28;20241;-77
2021/11/11 04:43:03;;;;;;;33.30;25.45;;;2.10;1.00;;;;;;5051574;28;20206;-78
2021/11/11 04:49:03;;;;;;;31.83;24.80;;;2.10;1.00;;;;;;5097670;27;20573;-77
2021/11/11 05:02:41;;;;;;;33.40;25.60;;;1.90;1.00;;;;;;5074792;27;20281;-78
2021/11/11 05:05:10;;;;;;;31.85;24.80;;;1.90;1.00;;;;;;5085190;27;20243;-77
2021/11/11 05:07:37;;;;;;;32.75;25.08;;;2.00;1.00;;;;;;5079081;27;20236;-76
2021/11/11 05:10:04;;;;;;;35.50;27.73;;;2.00;1.00;;;;;;5079433;27;20227;-77
2021/11/11 05:12:31;;;;;;;39.33;26.30;;;2.00;1.00;;;;;;5089245;27;20228;-77
2021/11/11 05:14:58;;;;;;;32.13;26.08;;;2.00;1.00;;;;;;5085180;27;20220;-77
2021/11/11 05:17:24;;;;;;;38.78;27.60;;;2.00;1.00;;;;;;5082249;27;20216;-78
2021/11/11 05:19:52;;;;;;;29.80;24.58;;;1.90;1.00;;;;;;5082765;27;21127;-78
2021/11/11 05:22:20;;;;;;;34.55;27.92;;;1.90;1.00;;;;;;5084016;27;20243;-76
2021/11/11 05:24:47;;;;;;;33.78;25.15;;;1.90;1.00;;;;;;5081405;27;21473;-77
2021/11/11 05:27:14;;;;;;;32.97;24.40;;;1.90;1.00;;;;;;5081900;27;20718;-77
2021/11/11 05:29:41;;;;;;;31.70;25.27;;;1.90;1.00;;;;;;5083443;27;20342;-77
2021/11/11 05:32:09;;;;;;;34.67;25.88;;;2.00;1.00;;;;;;5080331;27;20223;-77
2021/11/11 05:34:36;;;;;;;36.30;26.75;;;2.00;1.00;;;;;;5081919;27;20303;-77
2021/11/11 05:37:03;;;;;;;40.95;27.05;;;2.10;1.00;;;;;;5081477;27;20281;-78
2021/11/11 05:39:31;;;;;;;31.08;24.08;;;2.10;1.00;;;;;;5084304;27;20222;-77
2021/11/11 05:41:58;;;;;;;31.90;26.33;;;2.10;1.00;;;;;;5076959;27;20750;-77
2021/11/11 05:44:24;;;;;;;34.55;27.88;;;2.20;1.00;;;;;;5083449;28;20217;-77
2021/11/11 05:46:52;;;;;;;32.20;24.90;;;2.10;1.00;;;;;;5083995;28;21289;-77
2021/11/11 05:49:19;;;;;;;37.55;26.85;;;2.10;1.00;;;;;;5087167;27;20230;-78
2021/11/11 05:51:46;;;;;;;30.60;24.90;;;2.00;1.00;;;;;;5084900;27;20676;-77
2021/11/11 05:54:13;;;;;;;34.65;26.10;;;2.00;1.00;;;;;;5079513;27;20216;-77
2021/11/11 05:56:41;;;;;;;32.33;25.38;;;2.00;1.00;;;;;;5080907;27;20280;-77
2021/11/11 05:59:09;;;;;;;30.75;24.90;;;2.00;1.00;;;;;;5066189;27;20237;-76
2021/11/11 06:01:36;;;;;;;34.83;28.75;;;2.00;1.00;;;;;;5068241;28;20220;-78
2021/11/11 06:04:03;;;;;;;32.67;26.48;;;2.00;1.00;;;;;;5067287;28;20240;-75
2021/11/11 06:06:30;;;;;;;36.65;27.98;;;2.20;1.00;;;;;;5065958;28;20320;-78
2021/11/11 06:08:57;;;;;;;31.63;25.48;;;2.40;1.00;;;;;;5060756;28;20259;-78
2021/11/11 06:11:23;;;;;;;35.90;28.33;;;2.50;1.00;;;;;;5065142;28;20212;-76
2021/11/11 06:13:51;;;;;;;31.55;25.08;;;2.70;1.00;;;;;;5063167;28;20707;-78
2021/11/11 06:16:18;;;;;;;27.83;23.15;;;2.70;1.00;;;;;;5060853;28;20235;-77
2021/11/11 06:18:45;;;;;;;33.97;25.00;;;2.70;1.00;;;;;;5056749;28;21245;-77
2021/11/11 06:21:11;;;;;;;32.45;25.77;;;2.60;1.00;;;;;;5064353;28;20835;-76
2021/11/11 06:23:38;;;;;;;36.08;27.17;;;2.50;1.00;;;;;;5059410;28;20313;-77
2021/11/11 06:26:05;;;;;;;34.58;26.02;;;2.40;1.00;;;;;;5063146;28;20220;-77
2021/11/11 06:28:32;;;;;;;29.38;23.88;;;2.30;1.00;;;;;;5061900;28;20238;-77
2021/11/11 06:31:00;;;;;;;32.28;23.55;;;2.20;1.00;;;;;;5061127;28;20725;-77
2021/11/11 06:33:27;;;;;;;35.78;28.25;;;2.10;1.00;;;;;;5056230;28;20808;-80
2021/11/11 06:35:54;;;;;;;41.90;28.75;;;2.10;1.00;;;;;;5069283;28;20308;-78
2021/11/11 06:38:21;;;;;;;33.03;24.10;;;2.10;1.00;;;;;;5076601;28;20225;-79
2021/11/11 06:40:50;;;;;;;28.33;24.85;;;2.00;1.00;;;;;;5076819;28;20220;-80
2021/11/11 06:43:17;;;;;;;37.97;30.73;;;2.00;1.00;;;;;;5074227;28;21637;-78
2021/11/11 06:45:43;;;;;;;31.10;23.60;;;2.10;1.00;;;;;;5063821;28;20998;-77
2021/11/11 06:48:12;;;;;;;36.75;24.10;;;2.10;1.00;;;;;;5063516;28;20228;-77
2021/11/11 06:50:40;;;;;;;32.67;25.30;;;2.10;1.00;;;;;;5062465;28;20223;-77
2021/11/11 06:53:07;;;;;;;30.00;25.52;;;2.20;1.00;;;;;;5063343;28;20283;-76
2021/11/11 06:55:35;;;;;;;32.65;25.65;;;2.20;1.00;;;;;;5070115;28;20221;-77
2021/11/11 06:58:02;;;;;;;36.38;28.15;;;2.30;1.00;;;;;;5067816;28;20313;-76
2021/11/11 07:00:29;;;;;;;37.47;28.85;;;2.40;1.00;;;;;;5061564;28;20361;-76
2021/11/11 07:02:55;;;;;;;33.63;24.92;;;2.40;1.00;;;;;;5059003;28;20653;-77
2021/11/11 07:05:23;;;;;;;33.47;25.27;;;2.40;1.00;;;;;;5062314;28;21735;-77
2021/11/11 07:07:50;;;;;;;38.13;27.92;;;2.50;1.00;;;;;;5066139;28;20232;-76
2021/11/11 07:10:19;;;;;;;35.78;27.80;;;2.50;1.00;;;;;;5061393;28;21464;-77
2021/11/11 07:12:46;;;;;;;31.60;26.02;;;2.50;1.00;;;;;;5064145;28;20231;-77
2021/11/11 07:15:15;;;;;;;33.85;25.77;;;2.60;1.00;;;;;;5063808;28;20236;-77
2021/11/11 07:17:42;;;;;;;35.42;25.45;;;2.60;1.00;;;;;;5066095;28;20310;-76
2021/11/11 07:20:12;;;;;;;34.22;25.50;;;2.60;1.00;;;;;;5063932;28;20220;-75
2021/11/11 07:22:42;;;;;;;33.33;24.80;;;2.60;1.00;;;;;;5060996;28;20228;-76
2021/11/11 07:25:10;;;;;;;36.53;29.35;;;2.60;1.00;;;;;;5063356;28;20311;-78
2021/11/11 07:27:37;;;;;;;38.20;25.30;;;2.60;1.00;;;;;;5077758;27;20240;-76
2021/11/11 07:30:05;;;;;;;32.13;23.95;;;2.60;1.00;;;;;;5062979;28;20220;-76
2021/11/11 07:32:32;;;;;;;44.20;33.00;;;2.60;1.00;;;;;;5060233;28;20217;-76
2021/11/11 07:35:00;;;;;;;38.10;29.10;;;2.60;1.00;;;;;;5061272;28;20232;-76
2021/11/11 07:37:27;;;;;;;38.92;28.67;;;2.70;1.00;;;;;;5063266;28;20710;-77
2021/11/11 07:39:54;;;;;;;37.30;28.55;;;2.80;1.00;;;;;;5061042;28;20219;-76
2021/11/11 07:42:25;;;;;;;35.95;27.95;;;2.90;1.00;;;;;;5056972;28;20220;-76
2021/11/11 07:44:52;;;;;;;36.35;27.50;;;3.00;1.00;;;;;;5072077;28;20209;-76
2021/11/11 07:47:26;;;;;;;39.78;28.05;;;3.00;1.00;;;;;;5068371;28;20260;-76
2021/11/11 07:49:53;;;;;;;32.60;25.08;;;3.10;1.00;;;;;;5067197;28;20229;-76
2021/11/11 07:52:20;;;;;;;38.63;27.25;;;3.10;1.00;;;;;;5069045;28;20315;-76
2021/11/11 07:54:47;;;;;;;34.40;27.10;;;3.20;1.00;;;;;;5072043;28;20228;-76
2021/11/11 07:57:15;;;;;;;38.58;28.35;;;3.30;1.00;;;;;;5070348;28;20770;-76
2021/11/11 07:59:42;;;;;;;35.78;27.40;;;3.40;1.00;;;;;;5065017;28;20216;-76
2021/11/11 08:02:09;;;;;;;36.03;27.38;;;3.60;1.00;;;;;;5056215;28;20328;-77
2021/11/11 08:04:36;;;;;;;35.75;29.70;;;3.60;1.00;;;;;;5069269;28;22923;-78
2021/11/11 08:07:02;;;;;;;39.50;28.90;;;3.80;1.00;;;;;;5071547;28;20307;-78
2021/11/11 08:09:29;;;;;;;39.67;30.88;;;3.90;1.00;;;;;;5072844;28;20234;-78
2021/11/11 08:11:56;;;;;;;35.13;28.50;;;4.00;1.00;;;;;;5100792;27;20738;-77
2021/11/11 08:14:25;;;;;;;32.40;27.33;;;4.00;1.00;;;;;;5075947;28;20220;-78
2021/11/11 08:16:52;;;;;;;36.10;29.70;;;4.10;1.00;;;;;;5074650;28;20227;-78
2021/11/11 08:19:18;;;;;;;39.80;32.05;;;4.20;1.00;;;;;;5079143;28;20288;-79
2021/11/11 08:21:45;;;;;;;38.65;28.80;;;4.50;1.00;;;;;;5070802;28;20271;-79
2021/11/11 08:24:12;;;;;;;33.08;27.83;;;4.70;1.00;;;;;;5082529;27;21071;-79
2021/11/11 08:26:38;;;;;;;35.78;27.55;;;4.70;1.00;;;;;;5074607;28;20228;-79
2021/11/11 08:29:05;;;;;;;54.75;40.58;;;4.70;1.00;;;;;;5072079;28;20283;-78
2021/11/11 08:31:33;;;;;;;36.05;27.38;;;4.70;1.00;;;;;;5070907;28;20228;-78
2021/11/11 08:34:00;;;;;;;37.17;29.55;;;4.80;1.00;;;;;;5070133;28;20251;-78
2021/11/11 08:36:28;;;;;;;37.85;28.42;;;4.90;1.00;;;;;;5066113;28;20653;-78
2021/11/11 08:38:56;;;;;;;34.05;26.85;;;5.00;1.00;;;;;;5068946;28;20802;-77
2021/11/11 08:41:22;;;;;;;38.42;29.38;;;5.10;1.00;;;;;;5068513;28;20231;-78
2021/11/11 08:43:49;;;;;;;38.20;30.30;;;5.20;1.00;;;;;;5069064;28;20230;-79
2021/11/11 08:46:16;;;;;;;31.35;28.02;;;5.30;1.00;;;;;;5066312;28;20224;-79
2021/11/11 08:48:44;;;;;;;33.25;27.77;;;5.50;1.00;;;;;;5071531;28;20748;-78
2021/11/11 08:51:11;;;;;;;40.83;29.90;;;5.70;1.00;;;;;;5067591;28;20761;-76
2021/11/11 08:53:38;;;;;;;37.10;29.33;;;5.80;1.00;;;;;;5069781;28;20204;-77
2021/11/11 08:56:05;;;;;;;36.13;28.33;;;6.00;1.00;;;;;;5070905;28;20231;-77
2021/11/11 08:58:34;;;;;;;39.58;27.25;;;6.10;1.00;;;;;;5068425;28;20220;-77
2021/11/11 09:01:05;;;;;;;30.15;25.02;;;6.20;1.00;;;;;;5072146;28;20232;-77
2021/11/11 09:03:32;;;;;;;32.70;27.00;;;6.40;1.00;;;;;;5070231;28;20228;-78
2021/11/11 09:06:00;;;;;;;36.45;27.92;;;6.50;1.00;;;;;;5066998;28;20232;-78
2021/11/11 09:08:27;;;;;;;31.92;25.55;;;6.60;1.00;;;;;;5066010;28;20313;-79
2021/11/11 09:10:55;;;;;;;31.60;26.45;;;6.70;1.00;;;;;;5068484;28;20228;-77
2021/11/11 09:13:22;;;;;;;32.63;26.30;;;6.80;1.00;;;;;;5071626;28;20271;-78
2021/11/11 09:15:48;;;;;;;29.58;23.65;;;6.90;1.00;;;;;;5073910;28;20307;-79
2021/11/11 09:18:16;;;;;;;36.15;25.58;;;7.10;1.00;;;;;;5076379;28;20228;-78
2021/11/11 09:20:43;;;;;;;32.58;26.65;;;7.30;1.00;;;;;;5072749;28;20312;-78
2021/11/11 09:23:12;;;;;;;33.15;25.85;;;7.50;1.00;;;;;;5073055;28;20224;-79
2021/11/11 09:25:39;;;;;;;34.38;24.60;;;8.10;1.00;;;;;;5071660;28;21567;-79
2021/11/11 09:28:06;;;;;;;33.53;24.90;;;8.80;1.00;;;;;;5068163;28;20222;-78
2021/11/11 09:30:38;;;;;;;41.53;25.80;;;9.50;1.00;;;;;;5071839;28;21032;-77
2021/11/11 09:33:05;;;;;;;35.08;25.13;;;9.70;1.00;;;;;;5074201;28;21149;-78
2021/11/11 09:35:33;;;;;;;30.42;23.50;;;9.60;1.00;;;;;;5071460;28;20215;-77
2021/11/11 09:38:01;;;;;;;27.92;21.88;;;9.40;1.00;;;;;;5073529;28;20246;-78
2021/11/11 09:40:31;;;;;;;27.50;22.60;;;9.50;1.00;;;;;;5078090;28;20219;-79
2021/11/11 09:42:57;;;;;;;28.53;22.80;;;9.50;1.00;;;;;;5077982;28;20423;-77
2021/11/11 09:45:27;;;;;;;28.03;21.63;;;9.60;1.00;;;;;;5078387;28;20833;-78
2021/11/11 09:47:54;;;;;;;27.77;21.13;;;9.80;1.00;;;;;;5074545;28;20489;-77
2021/11/11 09:50:25;;;;;;;23.23;20.75;;;10.10;1.00;;;;;;5078799;28;20802;-80
2021/11/11 09:52:53;;;;;;;27.10;20.13;;;10.10;1.00;;;;;;5073210;28;20232;-78
2021/11/11 10:00:55;;;;;;;23.50;21.00;;;9.90;1.00;;;;;;5076204;28;20450;-79
2021/11/11 10:03:22;;;;;;;24.43;21.37;;;10.00;1.00;;;;;;5071629;28;21267;-76
2021/11/11 10:05:49;;;;;;;24.65;21.92;;;10.00;1.00;;;;;;5078427;28;20424;-76
2021/11/11 10:08:34;;;;;;;28.53;23.80;;;10.10;1.00;;;;;;5071669;28;20259;-79
2021/11/11 10:11:02;;;;;;;25.17;22.43;;;10.10;1.00;;;;;;5074738;28;20739;-78
2021/11/11 10:13:31;;;;;;;27.20;22.70;;;10.40;1.00;;;;;;5070015;28;21345;-78
2021/11/11 10:16:04;;;;;;;29.70;23.63;;;11.20;1.00;;;;;;5072512;28;20470;-79
2021/11/11 10:18:43;;;;;;;26.57;21.27;;;11.80;1.00;;;;;;5080610;28;20500;-80
2021/11/11 10:21:30;;;;;;;23.43;20.93;;;11.60;1.00;;;;;;5085241;28;20437;-78
2021/11/11 10:24:10;;;;;;;24.57;20.20;;;11.50;1.00;;;;;;5091150;28;21213;-78
2021/11/11 10:26:40;;;;;;;27.63;22.27;;;11.40;1.00;;;;;;5082543;28;20529;-79
2021/11/11 10:29:20;;;;;;;25.93;22.03;;;11.50;1.00;;;;;;5085181;28;20423;-77
2021/11/11 10:31:52;;;;;;;29.40;23.70;;;11.50;1.00;;;;;;5079787;28;20430;-79
2021/11/11 10:34:19;;;;;;;28.43;22.10;;;11.40;1.00;;;;;;5084444;28;20447;-77
2021/11/11 10:36:48;;;;;;;24.33;21.50;;;11.30;1.00;;;;;;5077719;28;20477;-79
2021/11/11 10:39:18;;;;;;;24.67;19.83;;;11.40;1.00;;;;;;5078635;28;20417;-78
2021/11/11 10:41:46;;;;;;;24.23;20.67;;;11.70;1.00;;;;;;5078886;28;20527;-79
2021/11/11 10:44:20;;;;;;;24.00;19.30;;;12.10;1.00;;;;;;5071029;28;21060;-79
2021/11/11 10:46:49;;;;;;;24.87;20.30;;;12.50;1.00;;;;;;5073962;28;20464;-80
2021/11/11 10:49:22;;;;;;;25.93;20.00;;;13.10;1.00;;;;;;5088097;27;20563;-78
2021/11/11 10:51:49;;;;;;;24.37;19.90;;;14.00;1.00;;;;;;5071080;28;20443;-78
2021/11/11 10:54:15;;;;;;;25.00;20.40;;;14.30;1.00;;;;;;5073280;28;20478;-78
2021/11/11 10:56:45;;;;;;;20.23;18.03;;;15.10;1.00;;;;;;5077118;28;20469;-78
2021/11/11 10:59:16;;;;;;;21.43;19.10;;;16.00;1.00;;;;;;5079407;28;20432;-78
2021/11/11 11:01:45;;;;;;;22.13;18.20;;;16.30;1.00;;;;;;5082066;28;20466;-77
2021/11/11 11:04:25;;;;;;;28.03;18.43;;;16.20;1.00;;;;;;5068608;28;20457;-78
2021/11/11 11:06:52;;;;;;;25.87;19.90;;;16.20;1.00;;;;;;5077829;28;20483;-78
2021/11/11 11:09:19;;;;;;;24.87;19.47;;;16.20;1.00;;;;;;5071947;28;20454;-78
2021/11/11 11:11:46;;;;;;;22.50;18.60;;;16.30;1.00;;;;;;5075601;28;20469;-78
2021/11/11 11:14:15;;;;;;;37.20;29.53;;;16.60;1.00;;;;;;5077554;28;20456;-78
2021/11/11 11:16:43;;;;;;;25.43;20.03;;;16.80;1.00;;;;;;5076094;28;20490;-80
2021/11/11 11:19:12;;;;;;;21.57;17.00;;;17.00;1.00;;;;;;5069813;28;21463;-78
2021/11/11 11:21:41;;;;;;;23.73;17.63;;;16.60;1.00;;;;;;5067307;28;24219;-78
2021/11/11 11:24:09;;;;;;;19.60;16.90;;;16.50;1.00;;;;;;5064449;28;20472;-81
2021/11/11 11:26:39;;;;;;;24.13;18.27;;;16.80;1.00;;;;;;5073422;28;21499;-78
2021/11/11 11:29:12;;;;;;;22.03;18.40;;;16.90;1.00;;;;;;5071977;28;21042;-77
2021/11/11 11:31:46;;;;;;;22.40;18.20;;;17.10;1.00;;;;;;5071828;28;20427;-78
2021/11/11 11:34:18;;;;;;;24.33;19.10;;;17.20;1.00;;;;;;5073463;28;20486;-79
2021/11/11 11:36:48;;;;;;;20.60;18.30;;;17.30;1.00;;;;;;5076127;28;23128;-79
2021/11/11 11:39:30;;;;;;;21.63;17.73;;;17.30;1.00;;;;;;5074972;28;20438;-79
2021/11/11 11:42:00;;;;;;;21.10;18.50;;;16.60;1.00;;;;;;5083962;28;20423;-77
2021/11/11 11:44:46;;;;;;;21.80;19.33;;;16.20;1.00;;;;;;5078199;28;20739;-77
2021/11/11 11:47:18;;;;;;;23.17;18.10;;;16.00;1.00;;;;;;5077059;28;20470;-77
2021/11/11 11:49:50;;;;;;;25.57;20.07;;;15.60;1.00;;;;;;5076510;28;20639;-79
2021/11/11 11:52:17;;;;;;;27.83;20.50;;;15.50;1.00;;;;;;5071036;28;20574;-77
2021/11/11 11:54:50;;;;;;;20.63;17.60;;;15.80;1.00;;;;;;5071592;28;20468;-77
2021/11/11 11:57:22;;;;;;;20.70;18.37;;;16.40;1.00;;;;;;5075183;28;20476;-77
2021/11/11 11:59:53;;;;;;;23.83;18.00;;;17.10;1.00;;;;;;5077794;28;20437;-77
2021/11/11 12:02:26;;;;;;;20.77;17.20;;;17.50;1.00;;;;;;5081217;28;20964;-79
2021/11/11 12:05:10;;;;;;;22.10;19.30;;;17.80;1.00;;;;;;5066742;28;20483;-77
2021/11/11 12:10:35;;;;;;;20.27;18.10;;;18.20;1.00;;;;;;5071198;28;20423;-77
2021/11/11 12:39:32;;;;;;;21.70;18.03;;;18.90;1.00;;;;;;5067162;28;21109;-77
2021/11/11 12:42:04;;;;;;;20.27;18.03;;;17.70;1.00;;;;;;5072077;28;20458;-79
2021/11/11 12:44:31;;;;;;;20.70;17.67;;;16.90;1.00;;;;;;5074235;28;20556;-78
2021/11/11 12:47:02;;;;;;;21.43;16.60;;;16.10;1.00;;;;;;5066306;28;21759;-77
2021/11/11 12:49:33;;;;;;;20.27;16.53;;;15.40;1.00;;;;;;5074013;28;20488;-77
2021/11/11 12:52:23;;;;;;;17.50;15.70;;;14.90;1.00;;;;;;5068607;28;20467;-77
2021/11/11 12:54:51;;;;;;;23.73;18.83;;;14.40;1.00;;;;;;5067115;28;20475;-77
2021/11/11 12:57:20;;;;;;;20.00;17.10;;;14.10;1.00;;;;;;5071458;28;21300;-77
2021/11/11 12:59:48;;;;;;;24.23;18.23;;;13.70;1.00;;;;;;5073410;28;20525;-77
2021/11/11 13:02:14;;;;;;;19.40;15.80;;;13.40;1.00;;;;;;5073421;28;20627;-77
2021/11/11 13:04:49;;;;;;;18.10;15.50;;;13.30;1.00;;;;;;5073457;28;20463;-76
2021/11/11 13:07:27;;;;;;;18.60;15.87;;;13.30;1.00;;;;;;5069371;28;20429;-76
2021/11/11 13:10:08;;;;;;;21.10;17.43;;;13.10;1.00;;;;;;5076440;28;20446;-78
2021/11/11 13:12:36;;;;;;;22.40;17.87;;;12.80;1.00;;;;;;5073832;28;20518;-79
2021/11/11 13:15:07;;;;;;;19.30;14.50;;;12.50;1.00;;;;;;5070763;28;20463;-77
2021/11/11 13:17:41;;;;;;;20.43;15.17;;;12.40;1.00;;;;;;5074065;28;20476;-77
2021/11/11 13:20:25;;;;;;;18.53;15.90;;;12.30;1.00;;;;;;5075860;28;20458;-76
2021/11/11 13:22:59;;;;;;;19.77;16.60;;;12.20;1.00;;;;;;5069522;28;20501;-77
2021/11/11 13:28:41;;;;;;;22.73;17.93;;;12.10;1.00;;;;;;5071248;28;20465;-77
2021/11/11 16:02:13;;;;;;;11.13;9.80;;;10.50;1.00;;;;;;5079014;28;20514;-77
2021/11/11 16:21:15;;;;;;;15.83;12.17;;;10.40;1.00;;;;;;5076230;28;20471;-77
2021/11/11 16:23:54;;;;;;;16.07;12.20;;;10.40;1.00;;;;;;5077523;28;20456;-76
2021/11/11 16:26:23;;;;;;;16.17;12.80;;;10.50;1.00;;;;;;5081180;28;20418;-77
2021/11/11 16:28:53;;;;;;;14.00;10.90;;;10.50;1.00;;;;;;5075537;28;20455;-77
2021/11/11 16:31:21;;;;;;;16.03;12.57;;;10.40;1.00;;;;;;5069831;28;20516;-78
2021/11/11 16:33:50;;;;;;;14.43;12.20;;;10.40;1.00;;;;;;5074514;28;20561;-78
2021/11/11 16:36:18;;;;;;;16.87;12.30;;;10.30;1.00;;;;;;5079091;28;20446;-76